createdAt,value
2023-01-22T00:00:06.826Z,-0.50
2023-01-22T00:02:36.504Z,-0.50
2023-01-22T00:05:04.635Z,-0.50
2023-01-22T00:07:31.535Z,-0.50
2023-01-22T00:10:00.026Z,-0.40
2023-01-22T00:12:27.944Z,-0.50
2023-01-22T00:14:54.802Z,-0.60
2023-01-22T00:17:24.363Z,-0.60
2023-01-22T00:19:51.103Z,-0.50
2023-01-22T00:22:17.893Z,-0.60
2023-01-22T00:24:44.621Z,-0.50
2023-01-22T00:27:11.389Z,-0.50
2023-01-22T00:29:38.122Z,-0.50
2023-01-22T00:32:05.238Z,-0.50
2023-01-22T00:34:32.047Z,-0.60
2023-01-22T00:36:58.998Z,-0.60
2023-01-22T00:39:25.787Z,-0.60
2023-01-22T00:41:52.640Z,-0.70
2023-01-22T00:44:19.510Z,-0.70
2023-01-22T00:46:46.376Z,-0.70
2023-01-22T00:49:13.212Z,-0.60
2023-01-22T00:51:40.137Z,-0.60
2023-01-22T00:54:07.047Z,-0.50
2023-01-22T00:56:33.828Z,-0.40
2023-01-22T00:59:00.601Z,-0.30
2023-01-22T01:01:27.406Z,-0.30
2023-01-22T01:03:54.266Z,-0.30
2023-01-22T01:06:22.254Z,-0.20
2023-01-22T01:08:49.772Z,-0.10
2023-01-22T01:11:22.039Z,-0.10
2023-01-22T01:13:50.390Z,-0.10
2023-01-22T01:16:20.371Z,-0.10
2023-01-22T01:18:47.447Z,0.00
2023-01-22T01:21:14.531Z,0.10
2023-01-22T01:23:42.729Z,0.10
2023-01-22T01:26:12.424Z,0.10
2023-01-22T01:28:40.832Z,0.20
2023-01-22T01:31:11.185Z,0.30
2023-01-22T01:33:39.433Z,0.30
2023-01-22T01:36:10.374Z,0.30
2023-01-22T01:38:37.196Z,0.30
2023-01-22T01:41:04.566Z,0.40
2023-01-22T01:43:31.391Z,0.30
2023-01-22T01:45:59.923Z,0.30
2023-01-22T01:48:36.628Z,0.40
2023-01-22T01:51:16.503Z,0.30
2023-01-22T01:53:45.806Z,0.40
2023-01-22T01:56:28.637Z,0.40
2023-01-22T01:59:01.753Z,0.30
2023-01-22T02:01:28.476Z,0.30
2023-01-22T02:03:55.554Z,0.30
2023-01-22T02:06:22.432Z,0.40
2023-01-22T02:08:50.856Z,0.30
2023-01-22T02:11:19.044Z,0.30
2023-01-22T02:13:53.561Z,0.30
2023-01-22T02:16:20.537Z,0.40
2023-01-22T02:18:47.603Z,0.30
2023-01-22T02:21:37.396Z,0.30
2023-01-22T02:24:15.623Z,0.30
2023-01-22T02:26:44.526Z,0.30
2023-01-22T02:29:13.670Z,0.30
2023-01-22T02:31:41.866Z,0.30
2023-01-22T02:34:09.231Z,0.40
2023-01-22T02:36:37.688Z,0.30
2023-01-22T02:39:05.021Z,0.20
2023-01-22T02:41:32.013Z,0.30
2023-01-22T02:43:58.764Z,0.30
2023-01-22T02:46:26.065Z,0.30
2023-01-22T02:48:53.463Z,0.40
2023-01-22T02:51:20.298Z,0.30
2023-01-22T02:53:47.071Z,0.30
2023-01-22T02:56:13.840Z,0.40
2023-01-22T02:58:40.556Z,0.30
2023-01-22T03:01:21.404Z,0.30
2023-01-22T03:03:50.734Z,0.30
2023-01-22T03:06:21.985Z,0.30
2023-01-22T03:09:00.075Z,0.30
2023-01-22T03:11:28.768Z,0.30
2023-01-22T03:14:14.675Z,0.40
2023-01-22T03:17:00.752Z,0.40
2023-01-22T03:19:46.139Z,0.40
2023-01-22T03:22:15.657Z,0.30
2023-01-22T03:24:43.485Z,0.30
2023-01-22T03:27:10.709Z,0.20
2023-01-22T03:29:38.527Z,0.30
2023-01-22T03:32:06.275Z,0.30
2023-01-22T03:34:33.368Z,0.30
2023-01-22T03:37:00.189Z,0.20
2023-01-22T03:39:27.406Z,0.30
2023-01-22T03:41:54.546Z,0.20
2023-01-22T03:44:21.468Z,0.10
2023-01-22T03:46:48.324Z,0.20
2023-01-22T03:49:15.356Z,0.20
2023-01-22T03:51:43.876Z,0.20
2023-01-22T03:54:12.503Z,0.20
2023-01-22T03:56:39.646Z,0.20
2023-01-22T03:59:06.593Z,0.20
2023-01-22T04:01:33.666Z,0.20
2023-01-22T04:04:00.767Z,0.20
2023-01-22T04:06:28.333Z,0.20
2023-01-22T04:08:56.015Z,0.20
2023-01-22T04:11:23.105Z,0.20
2023-01-22T04:13:50.095Z,0.30
2023-01-22T04:16:17.287Z,0.20
2023-01-22T04:18:44.317Z,0.30
2023-01-22T04:21:11.177Z,0.20
2023-01-22T04:23:37.926Z,0.10
2023-01-22T04:26:04.843Z,0.20
2023-01-22T04:28:31.604Z,0.10
2023-01-22T04:30:58.590Z,0.10
2023-01-22T04:33:25.658Z,0.10
2023-01-22T04:35:54.312Z,0.10
2023-01-22T04:38:21.076Z,0.10
2023-01-22T04:40:48.078Z,0.10
2023-01-22T04:43:14.893Z,0.10
2023-01-22T04:45:41.659Z,0.10
2023-01-22T04:48:09.304Z,0.10
2023-01-22T04:50:36.110Z,0.10
2023-01-22T04:53:03.152Z,0.00
2023-01-22T04:55:30.456Z,0.10
2023-01-22T04:57:58.827Z,0.10
2023-01-22T05:00:27.065Z,0.20
2023-01-22T05:05:19.273Z,0.10
2023-01-22T05:07:46.889Z,0.20
2023-01-22T05:10:14.400Z,0.30
2023-01-22T05:12:41.564Z,0.20
2023-01-22T05:15:22.479Z,0.20
2023-01-22T05:17:51.300Z,0.20
2023-01-22T05:20:18.580Z,0.20
2023-01-22T05:22:45.815Z,0.20
2023-01-22T05:25:13.200Z,0.20
2023-01-22T05:27:39.976Z,0.20
2023-01-22T05:30:07.581Z,0.30
2023-01-22T05:32:34.337Z,0.20
2023-01-22T05:35:01.747Z,0.20
2023-01-22T05:37:28.514Z,0.10
2023-01-22T05:39:55.254Z,0.10
2023-01-22T05:42:22.152Z,0.10
2023-01-22T05:44:48.900Z,0.20
2023-01-22T05:47:16.174Z,0.20
2023-01-22T05:49:43.166Z,0.20
2023-01-22T05:52:10.998Z,0.20
2023-01-22T05:54:40.832Z,0.10
2023-01-22T05:57:08.154Z,0.10
2023-01-22T05:59:35.048Z,0.20
2023-01-22T06:02:01.863Z,0.20
2023-01-22T06:04:29.025Z,0.10
2023-01-22T06:06:56.106Z,0.20
2023-01-22T06:09:23.038Z,0.20
2023-01-22T06:11:49.733Z,0.30
2023-01-22T06:14:16.577Z,0.20
2023-01-22T06:16:43.519Z,0.30
2023-01-22T06:19:10.640Z,0.20
2023-01-22T06:21:37.548Z,0.30
2023-01-22T06:24:04.633Z,0.20
2023-01-22T06:26:31.376Z,0.30
2023-01-22T06:28:58.113Z,0.40
2023-01-22T06:31:25.054Z,0.40
2023-01-22T06:33:53.706Z,0.40
2023-01-22T06:36:20.453Z,0.30
2023-01-22T06:38:47.202Z,0.40
2023-01-22T06:41:13.974Z,0.40
2023-01-22T06:43:40.739Z,0.30
2023-01-22T06:46:07.518Z,0.40
2023-01-22T06:48:34.300Z,0.30
2023-01-22T06:51:01.383Z,0.40
2023-01-22T06:53:28.604Z,0.30
2023-01-22T06:55:55.611Z,0.40
2023-01-22T06:58:22.352Z,0.40
2023-01-22T07:00:49.122Z,0.30
2023-01-22T07:03:15.896Z,0.40
2023-01-22T07:05:42.767Z,0.30
2023-01-22T07:08:14.490Z,0.30
2023-01-22T07:10:42.007Z,0.40
2023-01-22T07:13:10.318Z,0.40
2023-01-22T07:15:37.162Z,0.40
2023-01-22T07:18:04.104Z,0.40
2023-01-22T07:20:30.832Z,0.30
2023-01-22T07:22:59.966Z,0.30
2023-01-22T07:25:27.642Z,0.30
2023-01-22T07:28:05.577Z,0.40
2023-01-22T07:30:32.533Z,0.40
2023-01-22T07:33:00.753Z,0.30
2023-01-22T07:35:28.480Z,0.40
2023-01-22T07:37:57.600Z,0.30
2023-01-22T07:40:25.116Z,0.30
2023-01-22T07:42:52.712Z,0.30
2023-01-22T07:45:19.849Z,0.40
2023-01-22T07:47:57.721Z,0.40
2023-01-22T07:50:30.176Z,0.30
2023-01-22T07:52:57.127Z,0.40
2023-01-22T07:55:24.036Z,0.40
2023-01-22T07:57:58.724Z,0.40
2023-01-22T08:00:25.934Z,0.40
2023-01-22T08:05:27.805Z,0.40
2023-01-22T08:07:54.595Z,0.40
2023-01-22T08:10:21.615Z,0.50
2023-01-22T08:12:48.451Z,0.40
2023-01-22T08:15:15.563Z,0.50
2023-01-22T08:17:42.914Z,0.60
2023-01-22T08:20:11.101Z,0.50
2023-01-22T08:22:38.195Z,0.60
2023-01-22T08:25:05.327Z,0.60
2023-01-22T08:27:35.086Z,0.60
2023-01-22T08:30:03.032Z,0.50
2023-01-22T08:32:29.954Z,0.60
2023-01-22T08:34:56.990Z,0.60
2023-01-22T08:37:24.937Z,0.50
2023-01-22T08:39:51.832Z,0.60
2023-01-22T08:42:29.077Z,0.70
2023-01-22T08:44:55.904Z,0.70
2023-01-22T08:47:22.700Z,0.60
2023-01-22T08:49:49.503Z,0.70
2023-01-22T08:52:16.697Z,0.80
2023-01-22T08:54:43.570Z,0.70
2023-01-22T08:57:10.558Z,0.70
2023-01-22T08:59:37.299Z,0.80
2023-01-22T09:02:04.187Z,0.80
2023-01-22T09:04:30.981Z,0.90
2023-01-22T09:06:57.800Z,0.90
2023-01-22T09:09:24.524Z,0.90
2023-01-22T09:11:51.226Z,0.90
2023-01-22T09:14:18.032Z,1.10
2023-01-22T09:16:44.895Z,1.00
2023-01-22T09:19:12.091Z,1.00
2023-01-22T09:21:39.026Z,1.10
2023-01-22T09:24:06.985Z,1.10
2023-01-22T09:26:34.163Z,1.30
2023-01-22T09:29:01.733Z,1.20
2023-01-22T09:31:28.624Z,1.10
2023-01-22T09:33:55.793Z,1.20
2023-01-22T09:36:22.934Z,1.10
2023-01-22T09:38:49.809Z,1.10
2023-01-22T09:41:24.447Z,1.10
2023-01-22T09:44:09.733Z,1.10
2023-01-22T09:46:44.037Z,1.00
2023-01-22T09:49:20.170Z,1.00
2023-01-22T09:51:55.486Z,1.10
2023-01-22T09:54:25.510Z,1.00
2023-01-22T09:56:56.088Z,1.00
2023-01-22T09:59:36.329Z,1.20
2023-01-22T10:02:33.573Z,1.10
2023-01-22T10:05:16.539Z,1.20
2023-01-22T10:07:53.443Z,1.20
2023-01-22T10:10:27.995Z,1.30
2023-01-22T10:13:06.335Z,1.30
2023-01-22T10:15:33.573Z,1.30
2023-01-22T10:18:00.859Z,1.30
2023-01-22T10:20:28.100Z,1.30
2023-01-22T10:22:59.319Z,1.30
2023-01-22T10:25:26.249Z,1.20
2023-01-22T10:28:01.188Z,1.10
2023-01-22T10:30:28.987Z,1.00
2023-01-22T10:33:06.714Z,1.10
2023-01-22T10:35:45.990Z,1.10
2023-01-22T10:38:30.771Z,1.10
2023-01-22T10:41:02.904Z,1.20
2023-01-22T10:43:38.860Z,1.20
2023-01-22T10:46:21.051Z,1.30
2023-01-22T10:48:59.927Z,1.30
2023-01-22T10:51:41.106Z,1.30
2023-01-22T10:54:23.675Z,1.20
2023-01-22T10:56:50.894Z,1.30
2023-01-22T10:59:23.164Z,1.30
2023-01-22T11:02:03.165Z,1.50
2023-01-22T11:04:33.278Z,1.50
2023-01-22T11:07:07.265Z,1.50
2023-01-22T11:09:49.126Z,1.70
2023-01-22T11:12:32.750Z,1.60
2023-01-22T11:15:37.115Z,1.60
2023-01-22T11:18:06.101Z,1.50
2023-01-22T11:20:49.635Z,1.50
2023-01-22T11:23:52.360Z,1.60
2023-01-22T11:26:53.766Z,1.60
2023-01-22T11:29:48.405Z,1.60
2023-01-22T11:32:18.170Z,1.60
2023-01-22T11:34:54.060Z,1.60
2023-01-22T11:37:29.265Z,1.50
2023-01-22T11:40:02.675Z,1.50
2023-01-22T11:42:48.128Z,1.50
2023-01-22T11:45:20.962Z,1.50
2023-01-22T11:48:00.191Z,1.50
2023-01-22T11:50:34.425Z,1.50
2023-01-22T11:53:26.136Z,1.60
2023-01-22T11:56:08.591Z,1.70
2023-01-22T11:58:59.509Z,1.60
2023-01-22T12:01:49.015Z,1.70
2023-01-22T12:04:57.731Z,1.70
2023-01-22T12:07:45.182Z,1.70
2023-01-22T12:10:34.001Z,1.70
2023-01-22T12:13:07.840Z,1.60
2023-01-22T12:15:40.144Z,1.50
2023-01-22T12:18:36.155Z,1.50
2023-01-22T12:21:06.598Z,1.60
2023-01-22T12:23:36.175Z,1.40
2023-01-22T12:26:13.712Z,1.50
2023-01-22T12:28:55.652Z,1.60
2023-01-22T12:31:28.596Z,1.70
2023-01-22T12:33:57.074Z,1.80
2023-01-22T12:36:25.906Z,1.80
2023-01-22T12:39:23.397Z,1.70
2023-01-22T12:42:04.841Z,1.70
2023-01-22T12:45:02.446Z,1.70
2023-01-22T12:47:32.032Z,1.80
2023-01-22T12:49:58.769Z,1.70
2023-01-22T12:52:35.242Z,1.60
2023-01-22T12:55:04.978Z,1.70
2023-01-22T12:57:40.463Z,1.70
2023-01-22T13:00:34.664Z,1.70
2023-01-22T13:03:30.937Z,1.70
2023-01-22T13:06:00.023Z,1.80
2023-01-22T13:08:42.017Z,1.70
2023-01-22T13:11:29.176Z,1.80
2023-01-22T13:14:14.788Z,1.80
2023-01-22T13:16:49.941Z,1.70
2023-01-22T13:19:29.431Z,1.70
2023-01-22T13:22:00.629Z,1.70
2023-01-22T13:24:27.377Z,1.70
2023-01-22T13:26:57.209Z,1.70
2023-01-22T13:29:27.260Z,1.70
2023-01-22T13:32:29.305Z,1.70
2023-01-22T13:35:04.089Z,1.70
2023-01-22T13:37:31.037Z,1.70
2023-01-22T13:39:57.820Z,1.70
2023-01-22T13:42:27.341Z,1.80
2023-01-22T13:44:56.273Z,1.80
2023-01-22T13:47:33.483Z,1.80
2023-01-22T13:50:00.565Z,1.70
2023-01-22T13:52:29.025Z,1.70
2023-01-22T13:55:02.312Z,1.70
2023-01-22T13:57:29.045Z,1.70
2023-01-22T13:59:58.306Z,1.70
2023-01-22T14:02:32.753Z,1.80
2023-01-22T14:04:59.764Z,1.80
2023-01-22T14:07:35.220Z,1.80
2023-01-22T14:10:24.667Z,1.70
2023-01-22T14:13:12.224Z,1.70
2023-01-22T14:15:40.580Z,1.70
2023-01-22T14:18:16.298Z,1.80
2023-01-22T14:20:46.362Z,1.70
2023-01-22T14:23:14.091Z,1.70
2023-01-22T14:25:42.833Z,1.70
2023-01-22T14:28:09.780Z,1.80
2023-01-22T14:30:36.734Z,1.80
2023-01-22T14:33:04.238Z,1.80
2023-01-22T14:35:31.703Z,1.90
2023-01-22T14:37:58.593Z,1.90
2023-01-22T14:40:26.972Z,1.90
2023-01-22T14:42:53.948Z,1.90
2023-01-22T14:45:21.629Z,1.80
2023-01-22T14:47:53.433Z,1.90
2023-01-22T14:50:21.885Z,1.80
2023-01-22T14:52:51.435Z,1.90
2023-01-22T14:55:19.346Z,1.90
2023-01-22T14:57:46.548Z,1.90
2023-01-22T15:00:15.406Z,1.80
2023-01-22T15:02:42.266Z,1.80
2023-01-22T15:05:10.161Z,1.80
2023-01-22T15:07:37.676Z,1.80
2023-01-22T15:10:06.010Z,1.80
2023-01-22T15:12:32.856Z,1.70
2023-01-22T15:14:59.597Z,1.80
2023-01-22T15:17:26.333Z,1.80
2023-01-22T15:19:53.101Z,1.90
2023-01-22T15:22:20.036Z,1.80
2023-01-22T15:24:46.763Z,1.70
2023-01-22T15:27:18.439Z,1.70
2023-01-22T15:29:45.942Z,1.70
2023-01-22T15:32:12.998Z,1.70
2023-01-22T15:34:39.841Z,1.70
2023-01-22T15:37:06.841Z,1.70
2023-01-22T15:39:33.603Z,1.80
2023-01-22T15:42:00.371Z,1.70
2023-01-22T15:44:27.158Z,1.80
2023-01-22T15:46:54.078Z,1.80
2023-01-22T15:49:20.857Z,1.80
2023-01-22T15:51:47.632Z,1.80
2023-01-22T15:54:16.337Z,1.70
2023-01-22T15:56:43.664Z,1.70
2023-01-22T15:59:12.005Z,1.70
2023-01-22T16:01:39.207Z,1.80
2023-01-22T16:04:06.683Z,1.70
2023-01-22T16:06:34.651Z,1.70
2023-01-22T16:09:03.043Z,1.70
2023-01-22T16:11:31.000Z,1.70
2023-01-22T16:13:59.202Z,1.70
2023-01-22T16:16:36.342Z,1.80
2023-01-22T16:19:05.331Z,1.80
2023-01-22T16:21:32.100Z,1.80
2023-01-22T16:24:00.600Z,1.70
2023-01-22T16:26:29.923Z,1.60
2023-01-22T16:28:59.226Z,1.50
2023-01-22T16:31:29.332Z,1.60
2023-01-22T16:33:58.851Z,1.50
2023-01-22T16:36:28.460Z,1.60
2023-01-22T16:38:55.512Z,1.50
2023-01-22T16:41:25.656Z,1.60
2023-01-22T16:43:53.960Z,1.70
2023-01-22T16:46:24.268Z,1.70
2023-01-22T16:49:02.751Z,1.70
2023-01-22T16:51:35.624Z,1.60
2023-01-22T16:54:02.690Z,1.60
2023-01-22T16:56:29.531Z,1.60
2023-01-22T16:58:56.257Z,1.60
2023-01-22T17:01:23.060Z,1.70
2023-01-22T17:03:49.976Z,1.70
2023-01-22T17:06:52.174Z,1.70
2023-01-22T17:09:23.167Z,1.70
2023-01-22T17:12:01.336Z,1.70
2023-01-22T17:14:30.119Z,1.70
2023-01-22T17:16:58.171Z,1.70
2023-01-22T17:19:25.026Z,1.70
2023-01-22T17:21:58.988Z,1.70
2023-01-22T17:24:27.517Z,1.80
2023-01-22T17:26:54.799Z,1.80
2023-01-22T17:29:22.290Z,1.70
2023-01-22T17:31:49.169Z,1.70
2023-01-22T17:34:16.661Z,1.70
2023-01-22T17:36:43.550Z,1.70
2023-01-22T17:39:15.754Z,1.80
2023-01-22T17:41:43.370Z,1.70
2023-01-22T17:44:10.346Z,1.70
2023-01-22T17:46:37.475Z,1.70
2023-01-22T17:49:04.878Z,1.70
2023-01-22T17:51:33.509Z,1.60
2023-01-22T17:54:02.311Z,1.70
2023-01-22T17:56:31.987Z,1.70
2023-01-22T17:59:00.932Z,1.70
2023-01-22T18:01:30.286Z,1.60
2023-01-22T18:04:03.085Z,1.70
2023-01-22T18:06:29.954Z,1.60
2023-01-22T18:08:57.180Z,1.70
2023-01-22T18:11:28.129Z,1.70
2023-01-22T18:13:56.966Z,1.70
2023-01-22T18:16:25.702Z,1.60
2023-01-22T18:18:52.753Z,1.70
2023-01-22T18:21:21.881Z,1.70
2023-01-22T18:23:49.252Z,1.70
2023-01-22T18:26:19.864Z,1.70
2023-01-22T18:28:46.611Z,1.70
2023-01-22T18:31:15.566Z,1.80
2023-01-22T18:33:48.325Z,1.70
2023-01-22T18:36:17.929Z,1.60
2023-01-22T18:38:45.241Z,1.60
2023-01-22T18:41:26.290Z,1.70
2023-01-22T18:43:58.215Z,1.70
2023-01-22T18:46:28.310Z,1.60
2023-01-22T18:48:58.143Z,1.70
2023-01-22T18:51:26.418Z,1.70
2023-01-22T18:53:53.338Z,1.70
2023-01-22T18:56:20.336Z,1.60
2023-01-22T18:58:48.206Z,1.70
2023-01-22T19:01:42.883Z,1.70
2023-01-22T19:04:11.835Z,1.70
2023-01-22T19:06:39.156Z,1.80
2023-01-22T19:09:07.596Z,1.80
2023-01-22T19:11:39.181Z,1.70
2023-01-22T19:14:09.101Z,1.70
2023-01-22T19:16:37.803Z,1.70
2023-01-22T19:19:11.313Z,1.70
2023-01-22T19:21:47.690Z,1.70
2023-01-22T19:24:17.449Z,1.80
2023-01-22T19:26:46.668Z,1.90
2023-01-22T19:29:17.479Z,1.80
2023-01-22T19:31:47.744Z,1.80
2023-01-22T19:34:23.386Z,1.70
2023-01-22T19:36:52.777Z,1.80
2023-01-22T19:39:20.387Z,1.80
2023-01-22T19:41:47.543Z,1.80
2023-01-22T19:44:14.549Z,1.70
2023-01-22T19:46:42.450Z,1.70
2023-01-22T19:49:12.729Z,1.70
2023-01-22T19:51:39.933Z,1.80
2023-01-22T19:54:06.988Z,1.80
2023-01-22T19:56:36.289Z,1.80
2023-01-22T19:59:09.960Z,1.70
2023-01-22T20:01:37.263Z,1.70
2023-01-22T20:04:08.899Z,1.80
2023-01-22T20:06:35.670Z,1.80
2023-01-22T20:09:03.574Z,1.80
2023-01-22T20:11:31.084Z,1.80
2023-01-22T20:13:58.196Z,1.80
2023-01-22T20:16:27.806Z,1.80
2023-01-22T20:18:56.125Z,1.80
2023-01-22T20:21:23.807Z,1.90
2023-01-22T20:23:51.083Z,2.00
2023-01-22T20:26:19.963Z,1.90
2023-01-22T20:28:48.066Z,1.90
2023-01-22T20:31:19.855Z,1.80
2023-01-22T20:33:46.760Z,1.80
2023-01-22T20:36:15.437Z,1.80
2023-01-22T20:38:44.695Z,1.80
2023-01-22T20:41:12.428Z,1.80
2023-01-22T20:43:41.281Z,1.90
2023-01-22T20:46:12.426Z,1.90
2023-01-22T20:48:39.176Z,1.90
2023-01-22T20:51:13.766Z,1.90
2023-01-22T20:53:42.153Z,1.80
2023-01-22T20:56:13.167Z,1.90
2023-01-22T20:58:40.236Z,1.90
2023-01-22T21:01:14.693Z,2.00
2023-01-22T21:03:45.512Z,1.90
2023-01-22T21:06:14.462Z,1.80
2023-01-22T21:08:42.361Z,1.80
2023-01-22T21:11:13.932Z,1.80
2023-01-22T21:13:40.788Z,1.90
2023-01-22T21:16:16.477Z,1.80
2023-01-22T21:18:45.635Z,1.90
2023-01-22T21:21:17.856Z,2.00
2023-01-22T21:23:47.556Z,2.00
2023-01-22T21:26:16.293Z,1.90
2023-01-22T21:28:43.170Z,1.90
2023-01-22T21:31:13.212Z,1.90
2023-01-22T21:33:40.960Z,2.10
2023-01-22T21:36:08.968Z,2.00
2023-01-22T21:38:36.655Z,1.90
2023-01-22T21:41:08.508Z,1.80
2023-01-22T21:43:54.281Z,1.90
2023-01-22T21:46:27.583Z,1.90
2023-01-22T21:48:58.310Z,1.90
2023-01-22T21:51:26.288Z,1.90
2023-01-22T21:53:57.713Z,2.10
2023-01-22T21:56:25.431Z,2.10
2023-01-22T21:58:52.243Z,2.00
2023-01-22T22:01:21.381Z,2.00
2023-01-22T22:03:48.368Z,2.00
2023-01-22T22:06:15.162Z,2.00
2023-01-22T22:08:43.674Z,1.90
2023-01-22T22:11:12.715Z,2.00
2023-01-22T22:13:39.745Z,2.00
2023-01-22T22:16:08.280Z,2.00
2023-01-22T22:18:35.825Z,1.90
2023-01-22T22:21:06.285Z,1.90
2023-01-22T22:23:34.022Z,1.90
2023-01-22T22:26:00.971Z,1.90
2023-01-22T22:28:28.056Z,1.90
2023-01-22T22:31:02.423Z,1.80
2023-01-22T22:33:29.188Z,1.90
2023-01-22T22:35:55.918Z,1.90
2023-01-22T22:38:22.695Z,1.90
2023-01-22T22:41:06.639Z,1.90
2023-01-22T22:43:38.970Z,1.90
2023-01-22T22:46:12.165Z,1.90
2023-01-22T22:48:38.953Z,1.90
2023-01-22T22:51:21.287Z,1.90
2023-01-22T22:53:51.408Z,1.90
2023-01-22T22:56:18.316Z,1.90
2023-01-22T22:58:45.137Z,2.00
2023-01-22T23:01:14.594Z,1.90
2023-01-22T23:03:41.919Z,1.90
2023-01-22T23:06:12.544Z,2.00
2023-01-22T23:08:44.396Z,2.20
2023-01-22T23:11:15.683Z,2.00
2023-01-22T23:13:49.460Z,1.90
2023-01-22T23:16:18.984Z,1.90
2023-01-22T23:18:47.358Z,1.90
2023-01-22T23:21:17.488Z,1.90
2023-01-22T23:23:44.496Z,2.00
2023-01-22T23:26:14.660Z,2.10
2023-01-22T23:28:41.542Z,2.10
2023-01-22T23:31:13.180Z,2.10
2023-01-22T23:33:40.340Z,2.00
2023-01-22T23:36:11.225Z,1.90
2023-01-22T23:38:38.574Z,1.90
2023-01-22T23:41:08.741Z,2.00
2023-01-22T23:43:35.844Z,2.00
2023-01-22T23:46:17.271Z,2.00
2023-01-22T23:48:44.539Z,2.00
2023-01-22T23:51:13.259Z,2.00
2023-01-22T23:53:42.061Z,2.00
2023-01-22T23:56:11.326Z,2.00
2023-01-22T23:58:38.294Z,2.00
